Time;durP1;ratioP1;P1;durP2;ratioP2;P2;SDS_P1;SDS_P2;PMS_P1;PMS_P2;Temp;Humidity;BMP_temperature;BMP_pressure;BME280_temperature;BME280_humidity;BME280_pressure;Samples;Min_cycle;Max_cycle;Signal;HPM_P1;HPM_P2
2021/12/02 00:01:17;;;;;;;11.90;1.88;;;2.50;99.90;;;;;;4900698;29;20044;-85
2021/12/02 00:03:46;;;;;;;9.02;1.55;;;3.20;99.90;;;;;;4900782;29;20049;-87
2021/12/02 00:06:18;;;;;;;11.27;1.35;;;2.50;99.90;;;;;;4900682;29;20048;-85
2021/12/02 00:08:47;;;;;;;4.90;1.42;;;3.00;99.90;;;;;;4899789;29;20044;-85
2021/12/02 00:11:15;;;;;;;9.48;1.67;;;3.00;99.90;;;;;;4900236;29;20048;-85
2021/12/02 00:16:26;;;;;;;8.77;1.83;;;2.60;99.90;;;;;;4900014;29;20052;-85
2021/12/02 00:21:41;;;;;;;7.20;1.10;;;2.30;99.90;;;;;;4899066;29;20136;-85
2021/12/02 00:24:09;;;;;;;9.40;1.73;;;1.40;99.90;;;;;;4899065;29;20111;-85
2021/12/02 00:26:39;;;;;;;9.05;1.27;;;2.00;99.90;;;;;;4914461;29;20100;-84
2021/12/02 00:29:07;;;;;;;9.02;1.75;;;1.90;99.90;;;;;;4899465;29;20056;-85
2021/12/02 00:31:37;;;;;;;14.38;1.40;;;1.90;99.90;;;;;;4899088;29;20049;-87
2021/12/02 00:34:06;;;;;;;11.85;2.25;;;1.70;99.90;;;;;;4900114;29;20053;-85
2021/12/02 00:36:35;;;;;;;11.35;2.17;;;1.50;99.90;;;;;;4900102;29;20060;-86
2021/12/02 00:39:06;;;;;;;11.52;2.25;;;1.60;99.90;;;;;;4899378;29;20063;-85
2021/12/02 00:41:32;;;;;;;8.90;1.40;;;1.80;99.90;;;;;;4914847;29;20048;-85
2021/12/02 00:43:58;;;;;;;13.98;2.55;;;1.80;99.90;;;;;;4898054;29;20083;-85
2021/12/02 00:46:27;;;;;;;6.57;1.33;;;2.10;99.90;;;;;;4898372;29;20155;-85
2021/12/02 00:48:53;;;;;;;8.93;1.67;;;1.40;99.90;;;;;;4898469;29;20095;-85
2021/12/02 00:51:26;;;;;;;16.50;3.20;;;1.40;99.90;;;;;;4899481;29;20104;-85
2021/12/02 00:53:53;;;;;;;11.10;1.75;;;1.40;99.90;;;;;;4898710;29;20126;-86
2021/12/02 00:56:25;;;;;;;14.85;1.77;;;1.50;99.90;;;;;;4914229;29;20116;-85
2021/12/02 00:58:53;;;;;;;9.73;1.88;;;0.70;99.90;;;;;;4914813;29;20067;-85
2021/12/02 01:01:24;;;;;;;9.45;1.40;;;1.30;99.90;;;;;;4915691;29;20048;-84
2021/12/02 01:03:54;;;;;;;8.70;1.60;;;1.70;99.90;;;;;;4899800;29;20096;-85
2021/12/02 01:06:20;;;;;;;6.40;1.48;;;1.40;99.90;;;;;;4883783;29;20116;-85
2021/12/02 01:08:52;;;;;;;9.85;1.38;;;1.40;99.90;;;;;;4897551;29;20055;-86
2021/12/02 01:11:19;;;;;;;12.77;3.95;;;1.50;99.90;;;;;;4901086;29;20049;-86
2021/12/02 01:13:46;;;;;;;13.30;1.45;;;1.50;99.90;;;;;;4897482;29;20090;-86
2021/12/02 01:16:17;;;;;;;7.00;1.73;;;1.60;99.90;;;;;;4883055;29;20048;-86
2021/12/02 01:18:43;;;;;;;7.55;1.38;;;1.80;99.90;;;;;;4882116;29;20048;-85
2021/12/02 01:21:14;;;;;;;13.38;2.72;;;2.00;99.90;;;;;;4912165;29;20079;-85
2021/12/02 01:23:41;;;;;;;13.88;1.80;;;1.60;99.90;;;;;;4881019;29;20055;-86
2021/12/02 01:26:08;;;;;;;12.43;1.33;;;1.50;99.90;;;;;;4870675;29;20140;-86
2021/12/02 01:28:35;;;;;;;8.85;1.50;;;1.90;99.90;;;;;;4878317;29;20049;-86
2021/12/02 01:31:02;;;;;;;9.35;1.35;;;2.20;99.90;;;;;;4879469;29;20056;-85
2021/12/02 01:33:28;;;;;;;19.52;2.45;;;1.30;99.90;;;;;;4864692;29;20080;-85
2021/12/02 01:36:00;;;;;;;8.55;1.38;;;1.70;99.90;;;;;;4879343;29;20049;-85
2021/12/02 01:38:28;;;;;;;9.52;2.20;;;1.70;99.90;;;;;;4879680;29;20053;-85
2021/12/02 01:40:56;;;;;;;13.25;2.67;;;1.30;99.90;;;;;;4878768;29;20037;-85
2021/12/02 01:43:47;;;;;;;7.55;1.35;;;2.30;99.90;;;;;;4892983;29;20056;-86
2021/12/02 01:46:18;;;;;;;3.38;0.75;;;2.50;99.90;;;;;;4882489;29;20120;-86
2021/12/02 01:49:06;;;;;;;4.45;0.65;;;1.80;99.90;;;;;;4871239;29;20049;-86
2021/12/02 01:51:38;;;;;;;3.22;0.50;;;2.60;99.90;;;;;;4879721;29;20084;-87
2021/12/02 01:54:13;;;;;;;4.88;0.52;;;3.20;99.90;;;;;;4879528;29;20052;-86
2021/12/02 01:56:43;;;;;;;2.67;1.30;;;2.40;99.90;;;;;;4879820;29;20044;-86
2021/12/02 01:59:15;;;;;;;6.30;1.40;;;2.40;99.90;;;;;;4894384;29;20059;-87
2021/12/02 02:01:46;;;;;;;3.20;0.70;;;2.40;99.90;;;;;;4896846;29;20111;-86
2021/12/02 02:04:12;;;;;;;2.22;0.70;;;3.20;99.90;;;;;;4881725;29;20048;-86
2021/12/02 02:06:39;;;;;;;;;;;2.00;99.90;;;;;;4881561;29;20045;-86
2021/12/02 02:09:06;;;;;;;;;;;2.10;99.90;;;;;;4884653;29;19986;-86
2021/12/02 02:11:32;;;;;;;4.47;0.60;;;2.50;99.90;;;;;;4883624;29;19915;-86
2021/12/02 02:14:04;;;;;;;6.40;1.60;;;2.00;99.90;;;;;;4886150;29;20037;-86
2021/12/02 02:16:32;;;;;;;10.60;1.77;;;1.90;99.90;;;;;;4888020;29;20043;-86
2021/12/02 02:18:58;;;;;;;10.18;1.00;;;2.20;99.90;;;;;;4887669;29;20032;-86
2021/12/02 02:21:26;;;;;;;9.45;1.10;;;1.90;99.90;;;;;;4900096;29;20037;-86
2021/12/02 02:26:25;;;;;;;8.93;0.80;;;1.90;99.90;;;;;;4909608;29;20098;-87
2021/12/02 02:28:54;;;;;;;5.72;0.70;;;2.00;99.90;;;;;;4900827;29;20400;-86
2021/12/02 02:31:20;;;;;;;12.85;1.52;;;1.70;99.90;;;;;;4900154;29;20107;-86
2021/12/02 02:33:51;;;;;;;3.85;1.02;;;1.90;99.90;;;;;;4901045;29;20028;-86
2021/12/02 02:36:19;;;;;;;7.40;1.70;;;2.50;99.90;;;;;;4899957;29;20111;-86
2021/12/02 02:38:55;;;;;;;7.50;1.77;;;1.60;99.90;;;;;;4901088;29;20059;-86
2021/12/02 02:41:26;;;;;;;12.90;2.03;;;1.50;99.90;;;;;;4900678;29;20159;-86
2021/12/02 02:43:56;;;;;;;6.53;0.90;;;1.60;99.90;;;;;;4900976;29;20048;-86
2021/12/02 02:46:31;;;;;;;5.40;0.95;;;1.60;99.90;;;;;;4901618;29;20063;-85
2021/12/02 02:48:59;;;;;;;15.20;1.40;;;1.60;99.90;;;;;;4900331;29;20048;-84
2021/12/02 02:51:30;;;;;;;3.85;0.68;;;1.50;99.90;;;;;;4899799;29;20051;-86
2021/12/02 02:54:02;;;;;;;4.60;1.10;;;1.20;99.90;;;;;;4899267;29;20063;-86
2021/12/02 02:56:32;;;;;;;4.45;1.27;;;2.10;99.90;;;;;;4899258;29;20055;-85
2021/12/02 03:04:28;;;;;;;11.50;1.33;;;1.70;99.90;;;;;;4915880;29;20044;-85
2021/12/02 03:06:58;;;;;;;5.15;1.05;;;2.40;99.90;;;;;;4900640;29;20044;-85
2021/12/02 03:12:03;;;;;;;2.10;0.70;;;2.00;99.90;;;;;;4915506;29;20052;-85
2021/12/02 03:14:47;;;;;;;8.43;1.08;;;2.00;99.90;;;;;;4901156;29;20036;-85
2021/12/02 03:17:14;;;;;;;6.13;0.85;;;2.50;99.90;;;;;;4900570;29;20063;-85
2021/12/02 03:19:45;;;;;;;7.25;1.15;;;2.70;99.90;;;;;;4900644;29;20045;-86
2021/12/02 03:22:16;;;;;;;6.65;1.30;;;2.10;99.90;;;;;;4899802;29;20511;-86
2021/12/02 03:24:42;;;;;;;7.35;1.30;;;2.20;99.90;;;;;;4899331;29;20038;-86
2021/12/02 03:27:08;;;;;;;7.38;1.70;;;2.20;99.90;;;;;;4915742;29;20084;-87
2021/12/02 03:29:35;;;;;;;3.88;1.10;;;1.50;99.90;;;;;;4900154;29;20112;-85
2021/12/02 03:32:01;;;;;;;4.97;1.20;;;2.10;99.90;;;;;;4896954;29;20080;-86
2021/12/02 03:34:28;;;;;;;6.63;1.20;;;2.00;99.90;;;;;;4898634;29;20537;-86
2021/12/02 03:36:54;;;;;;;6.32;1.05;;;3.10;99.90;;;;;;4897733;29;20040;-86
2021/12/02 03:39:23;;;;;;;8.88;1.33;;;2.40;99.90;;;;;;4896736;29;20052;-86
2021/12/02 03:41:49;;;;;;;8.65;1.45;;;2.50;99.90;;;;;;4897420;29;20116;-86
2021/12/02 03:44:15;;;;;;;;;;;2.70;99.90;;;;;;4899894;29;20050;-86
2021/12/02 03:46:42;;;;;;;8.32;1.15;;;2.50;99.90;;;;;;4898718;29;19926;-86
2021/12/02 03:49:08;;;;;;;3.13;1.27;;;2.30;99.90;;;;;;4898215;29;20055;-86
2021/12/02 03:51:36;;;;;;;9.73;0.95;;;1.90;99.90;;;;;;4898274;29;20473;-87
2021/12/02 03:54:03;;;;;;;3.45;0.70;;;1.60;99.90;;;;;;4900526;29;20040;-87
2021/12/02 03:56:29;;;;;;;4.28;1.20;;;2.00;99.90;;;;;;4901098;29;20052;-87
2021/12/02 03:58:55;;;;;;;;;;;1.60;99.90;;;;;;4900649;29;20052;-87
2021/12/02 04:01:22;;;;;;;6.53;0.63;;;2.30;99.90;;;;;;4898784;29;20001;-87
2021/12/02 04:03:52;;;;;;;6.47;0.85;;;1.60;99.90;;;;;;4899190;29;20066;-87
2021/12/02 04:06:19;;;;;;;3.20;0.70;;;1.40;99.90;;;;;;4900776;29;20108;-87
2021/12/02 04:08:52;;;;;;;4.00;0.68;;;1.40;99.90;;;;;;4904521;29;20044;-86
2021/12/02 04:17:06;;;;;;;3.85;1.02;;;1.80;99.90;;;;;;4920983;29;20048;-87
2021/12/02 04:19:32;;;;;;;6.20;0.80;;;1.20;99.90;;;;;;4905325;29;20075;-87
2021/12/02 04:21:59;;;;;;;2.92;0.82;;;1.00;99.90;;;;;;4903581;29;20024;-87
2021/12/02 04:24:25;;;;;;;5.88;1.27;;;0.80;99.90;;;;;;4903495;29;20054;-86
2021/12/02 04:26:54;;;;;;;4.25;1.45;;;1.00;99.90;;;;;;4902934;29;20067;-86
2021/12/02 04:29:20;;;;;;;15.13;1.50;;;1.30;99.90;;;;;;4902949;29;20051;-87
2021/12/02 04:31:47;;;;;;;5.88;1.48;;;1.40;99.90;;;;;;4918657;29;20032;-86
2021/12/02 04:34:14;;;;;;;5.65;1.52;;;1.40;99.90;;;;;;4902636;29;20076;-86
2021/12/02 04:36:40;;;;;;;5.68;1.40;;;1.10;99.90;;;;;;4902268;29;20107;-86
2021/12/02 04:39:16;;;;;;;;;;;0.50;99.90;;;;;;4902907;29;20075;-86
2021/12/02 04:41:42;;;;;;;13.98;3.20;;;0.70;99.90;;;;;;4917510;29;19923;-86
2021/12/02 04:44:07;;;;;;;;;;;1.30;99.90;;;;;;4904092;29;20048;-86
2021/12/02 04:46:36;;;;;;;9.35;1.90;;;0.50;99.90;;;;;;4903644;29;19947;-86
2021/12/02 04:49:03;;;;;;;8.63;2.22;;;0.60;99.90;;;;;;4902835;29;20044;-86
2021/12/02 04:51:29;;;;;;;6.22;2.10;;;0.60;99.90;;;;;;4903423;29;20048;-86
2021/12/02 04:53:55;;;;;;;6.18;1.73;;;1.50;99.90;;;;;;4901873;29;20067;-86
2021/12/02 04:56:21;;;;;;;9.35;2.83;;;1.90;99.90;;;;;;4902257;29;20044;-86
2021/12/02 04:58:47;;;;;;;10.93;1.65;;;0.90;99.90;;;;;;4901968;29;20039;-87
2021/12/02 05:01:13;;;;;;;8.27;1.52;;;0.70;99.90;;;;;;4901951;29;20047;-86
2021/12/02 05:03:39;;;;;;;11.23;3.28;;;1.10;99.90;;;;;;4902590;29;20082;-86
2021/12/02 05:06:05;;;;;;;6.25;1.60;;;1.00;99.90;;;;;;4902846;29;20048;-86
2021/12/02 05:08:33;;;;;;;10.23;1.77;;;1.50;99.90;;;;;;4901703;29;20048;-87
2021/12/02 05:10:59;;;;;;;7.50;1.80;;;1.20;99.90;;;;;;4901447;29;20072;-86
2021/12/02 05:13:25;;;;;;;11.65;2.78;;;1.40;99.90;;;;;;4903499;29;20051;-86
2021/12/02 05:15:51;;;;;;;9.68;2.80;;;1.60;99.90;;;;;;4901539;29;20040;-86
2021/12/02 05:18:17;;;;;;;5.93;2.47;;;2.40;99.90;;;;;;4898723;29;20105;-87
2021/12/02 05:20:43;;;;;;;6.88;2.10;;;1.60;99.90;;;;;;4896288;29;20512;-88
2021/12/02 05:23:12;;;;;;;6.13;1.67;;;1.40;99.90;;;;;;4894399;29;20055;-89
2021/12/02 05:25:38;;;;;;;10.48;3.03;;;2.40;99.90;;;;;;4894962;29;20601;-88
2021/12/02 05:28:04;;;;;;;9.05;2.42;;;1.40;99.90;;;;;;4894500;29;20060;-88
2021/12/02 05:30:30;;;;;;;7.40;2.38;;;1.30;99.90;;;;;;4896192;29;20111;-87
2021/12/02 05:32:56;;;;;;;8.18;2.40;;;2.00;99.90;;;;;;4895537;29;20091;-87
2021/12/02 05:35:22;;;;;;;9.50;2.45;;;1.30;99.90;;;;;;4895414;29;20115;-87
2021/12/02 05:37:48;;;;;;;10.05;2.47;;;1.10;99.90;;;;;;4897140;29;20052;-87
2021/12/02 05:40:14;;;;;;;5.95;2.80;;;1.30;99.90;;;;;;4896835;29;20133;-87
2021/12/02 05:42:40;;;;;;;7.20;2.40;;;1.30;99.90;;;;;;4897199;29;20039;-88
2021/12/02 05:45:09;;;;;;;7.55;2.13;;;1.30;99.90;;;;;;4897037;29;20055;-88
2021/12/02 05:47:35;;;;;;;10.13;2.88;;;1.40;99.90;;;;;;4896611;29;20052;-88
2021/12/02 05:50:06;;;;;;;7.25;2.55;;;1.90;99.90;;;;;;4899269;29;20785;-88
2021/12/02 05:52:42;;;;;;;7.88;3.08;;;1.40;99.90;;;;;;4916058;29;20036;-89
2021/12/02 05:55:12;;;;;;;14.20;3.33;;;0.70;99.90;;;;;;4902960;29;20052;-89
2021/12/02 05:58:06;;;;;;;9.50;2.00;;;1.10;99.90;;;;;;4920855;28;20065;-89
2021/12/02 06:00:36;;;;;;;6.05;2.00;;;1.00;99.90;;;;;;4902228;29;20115;-88
2021/12/02 06:03:05;;;;;;;5.32;1.15;;;0.50;99.90;;;;;;4905605;29;20056;-88
2021/12/02 06:05:38;;;;;;;6.82;1.60;;;1.50;99.90;;;;;;4869585;29;20091;-90
2021/12/02 06:08:54;;;;;;;;;;;;;;;;;;;;;
2021/12/02 06:11:29;;;;;;;5.15;1.02;;;0.30;99.90;;;;;;4893156;29;20098;-91
2021/12/02 06:13:57;;;;;;;7.57;1.15;;;0.70;99.90;;;;;;4879740;29;20081;-91
2021/12/02 06:16:28;;;;;;;3.30;0.82;;;0.60;99.90;;;;;;4876231;29;20060;-89
2021/12/02 06:18:55;;;;;;;4.20;0.80;;;0.60;99.90;;;;;;4872178;29;20052;-90
2021/12/02 06:21:30;;;;;;;8.98;1.08;;;0.60;99.90;;;;;;4872930;29;20060;-90
2021/12/02 06:24:04;;;;;;;8.38;1.23;;;0.50;99.90;;;;;;4874433;29;20060;-89
2021/12/02 06:26:33;;;;;;;9.13;1.10;;;0.50;99.90;;;;;;4875834;29;20065;-89
2021/12/02 06:29:00;;;;;;;5.22;1.20;;;-0.10;99.90;;;;;;4871526;29;20045;-89
2021/12/02 06:31:35;;;;;;;10.93;1.48;;;0.60;99.90;;;;;;4872362;29;20060;-89
2021/12/02 06:34:07;;;;;;;3.30;1.10;;;0.30;99.90;;;;;;4869900;29;20048;-89
2021/12/02 06:36:41;;;;;;;4.32;1.17;;;0.30;99.90;;;;;;4870243;29;20110;-90
2021/12/02 06:39:13;;;;;;;16.50;1.85;;;0.40;99.90;;;;;;4880324;29;20100;-89
2021/12/02 06:41:49;;;;;;;7.00;1.40;;;1.10;99.90;;;;;;4886674;29;20048;-90
2021/12/02 07:20:10;;;;;;;5.95;1.77;;;-0.10;99.90;;;;;;4771949;30;20108;-91
2021/12/02 07:23:27;;;;;;;;;;;;;;;;;;;;;
2021/12/02 07:31:29;;;;;;;5.72;1.60;;;0.50;99.90;;;;;;5125934;23;20065;-89
2021/12/02 07:34:00;;;;;;;6.68;1.60;;;0.70;99.90;;;;;;4893398;29;20052;-88
2021/12/02 07:36:36;;;;;;;5.57;1.33;;;0.40;99.90;;;;;;4853772;29;20125;-88
2021/12/02 07:39:11;;;;;;;6.18;1.48;;;0.20;99.90;;;;;;4857463;29;20044;-88
2021/12/02 07:41:42;;;;;;;8.73;1.90;;;0.70;99.90;;;;;;4872987;29;20100;-88
2021/12/02 07:44:10;;;;;;;6.65;1.77;;;0.30;99.90;;;;;;4874337;29;20053;-88
2021/12/02 07:46:36;;;;;;;11.20;1.98;;;0.70;99.90;;;;;;4876392;29;20060;-87
2021/12/02 07:49:07;;;;;;;11.18;2.25;;;0.40;99.90;;;;;;4876267;29;20056;-87
2021/12/02 07:51:47;;;;;;;8.95;2.50;;;0.40;99.90;;;;;;4877729;29;20060;-88
2021/12/02 07:54:17;;;;;;;7.80;1.92;;;0.40;99.90;;;;;;4875380;29;20064;-88
2021/12/02 07:56:50;;;;;;;5.93;2.20;;;0.40;99.90;;;;;;4873834;29;20072;-88
2021/12/02 07:59:17;;;;;;;5.25;2.22;;;0.40;99.90;;;;;;4872981;29;20052;-88
2021/12/02 08:02:23;;;;;;;8.48;2.58;;;0.90;99.90;;;;;;4873290;29;20044;-87
2021/12/02 08:04:58;;;;;;;13.88;2.45;;;0.50;99.90;;;;;;4876058;29;20295;-88
2021/12/02 08:08:02;;;;;;;17.88;2.72;;;0.50;99.90;;;;;;4898247;29;20048;-88
2021/12/02 08:10:38;;;;;;;10.60;2.72;;;0.50;99.90;;;;;;4908334;29;20048;-87
2021/12/02 08:13:04;;;;;;;13.07;2.58;;;0.70;99.90;;;;;;4872679;29;20064;-87
2021/12/02 08:15:42;;;;;;;8.73;2.33;;;0.30;99.90;;;;;;4892175;29;20061;-88
2021/12/02 08:18:56;;;;;;;8.57;3.42;;;0.20;99.90;;;;;;4898072;29;20097;-88
2021/12/02 08:22:40;;;;;;;10.93;3.22;;;0.20;99.90;;;;;;4887125;29;20056;-88
2021/12/02 08:26:11;;;;;;;11.15;3.35;;;0.60;99.90;;;;;;4828882;29;20061;-88
2021/12/02 08:33:32;;;;;;;12.00;3.08;;;0.20;99.90;;;;;;4822529;29;20057;-88
2021/12/02 08:36:46;;;;;;;10.48;3.17;;;0.30;99.90;;;;;;4820723;29;20077;-88
2021/12/02 08:39:32;;;;;;;13.75;3.42;;;1.10;99.90;;;;;;4837987;29;20053;-88
2021/12/02 08:42:25;;;;;;;15.13;3.70;;;0.70;99.90;;;;;;4813711;29;20068;-88
2021/12/02 08:45:15;;;;;;;10.82;4.13;;;0.60;99.90;;;;;;4856682;29;20082;-88
2021/12/02 08:49:06;;;;;;;19.55;4.97;;;0.70;99.90;;;;;;4846487;29;20041;-89
2021/12/02 08:55:44;;;;;;;12.27;4.18;;;0.30;99.90;;;;;;4993608;23;20068;-89
2021/12/02 08:58:51;;;;;;;14.27;4.60;;;0.20;99.90;;;;;;4904664;29;20032;-88
2021/12/02 09:10:28;;;;;;;11.90;3.60;;;1.00;99.90;;;;;;4806858;29;20064;-88
2021/12/02 09:13:43;;;;;;;11.98;5.03;;;0.60;99.90;;;;;;4793498;29;20102;-88
2021/12/02 09:17:02;;;;;;;12.82;6.10;;;1.10;99.90;;;;;;4808490;29;20072;-88
2021/12/02 09:28:20;;;;;;;17.75;6.22;;;1.60;99.90;;;;;;4826192;29;20076;-87
2021/12/02 09:32:22;;;;;;;12.35;4.88;;;1.30;99.90;;;;;;4749685;30;20186;-87
2021/12/02 09:35:47;;;;;;;8.52;3.40;;;1.20;99.90;;;;;;4732041;30;20083;-88
2021/12/02 09:38:33;;;;;;;7.88;2.67;;;2.50;99.90;;;;;;4732240;30;20075;-88
2021/12/02 09:41:45;;;;;;;10.38;2.20;;;1.00;99.90;;;;;;4730986;30;20092;-87
2021/12/02 09:45:39;;;;;;;8.32;3.53;;;2.30;99.90;;;;;;4721172;30;20088;-87
2021/12/02 09:57:47;;;;;;;8.10;1.77;;;2.00;99.90;;;;;;4712678;30;20060;-87
2021/12/02 10:09:19;;;;;;;8.32;1.40;;;1.90;99.90;;;;;;4794369;29;20038;-87
2021/12/02 10:23:13;;;;;;;1.88;0.93;;;1.90;99.90;;;;;;4820045;29;20073;-87
2021/12/02 10:25:54;;;;;;;6.57;1.13;;;0.60;99.90;;;;;;4833744;29;20108;-88
2021/12/02 10:28:24;;;;;;;3.03;1.02;;;0.90;99.90;;;;;;4863056;29;20101;-88
2021/12/02 10:31:19;;;;;;;6.40;1.20;;;0.70;99.90;;;;;;4862255;29;20049;-89
2021/12/02 10:34:43;;;;;;;7.05;1.50;;;0.60;99.90;;;;;;4845303;29;21021;-89
2021/12/02 10:41:47;;;;;;;;;;;;;;;;;;;;;
2021/12/02 10:44:46;;;;;;;4.43;1.38;;;0.50;99.90;;;;;;4842975;29;20081;-90
2021/12/02 10:50:25;;;;;;;5.00;2.08;;;0.60;99.90;;;;;;4859085;29;20063;-89
2021/12/02 10:53:06;;;;;;;8.80;2.45;;;0.60;99.90;;;;;;4846823;29;20053;-90
2021/12/02 10:55:33;;;;;;;5.28;1.92;;;0.70;99.90;;;;;;4845850;29;20056;-88
2021/12/02 10:58:04;;;;;;;8.02;3.95;;;0.70;99.90;;;;;;4848059;29;20057;-88
2021/12/02 11:00:34;;;;;;;19.38;5.15;;;0.80;99.90;;;;;;4879535;29;20104;-88
2021/12/02 11:03:15;;;;;;;7.63;3.90;;;1.10;99.90;;;;;;4879811;29;20060;-88
2021/12/02 11:05:46;;;;;;;12.77;3.90;;;1.20;99.90;;;;;;4857340;29;20613;-87
2021/12/02 11:08:13;;;;;;;13.00;4.28;;;1.60;99.90;;;;;;4851435;29;20049;-88
2021/12/02 11:10:51;;;;;;;13.15;2.97;;;1.00;99.90;;;;;;4849687;29;20625;-88
2021/12/02 11:13:26;;;;;;;12.00;3.60;;;0.70;99.90;;;;;;4851382;29;20118;-87
2021/12/02 11:15:53;;;;;;;9.10;3.10;;;0.80;99.90;;;;;;4852691;29;20162;-87
2021/12/02 11:18:21;;;;;;;8.65;3.97;;;0.80;99.90;;;;;;4853901;29;20106;-87
2021/12/02 11:20:57;;;;;;;12.85;5.28;;;0.70;99.90;;;;;;4853602;29;20068;-88
2021/12/02 11:23:30;;;;;;;13.15;5.35;;;0.80;99.90;;;;;;4856573;29;20597;-88
2021/12/02 11:26:01;;;;;;;13.80;4.97;;;0.60;99.90;;;;;;4856479;29;20053;-88
2021/12/02 11:28:30;;;;;;;11.68;3.40;;;1.00;99.90;;;;;;4855904;29;20049;-88
2021/12/02 11:30:58;;;;;;;12.57;3.75;;;0.80;99.90;;;;;;4856443;29;20049;-87
2021/12/02 11:33:36;;;;;;;8.30;2.97;;;0.60;99.90;;;;;;4855708;29;20057;-87
2021/12/02 11:36:05;;;;;;;7.57;2.33;;;0.70;99.90;;;;;;4854577;29;20059;-87
2021/12/02 11:38:32;;;;;;;5.97;3.33;;;0.80;99.90;;;;;;4854325;29;20045;-88
2021/12/02 11:41:04;;;;;;;5.85;2.53;;;1.50;99.90;;;;;;4853456;29;20068;-88
2021/12/02 11:43:33;;;;;;;6.50;2.10;;;1.90;99.90;;;;;;4854246;29;20049;-88
2021/12/02 11:46:03;;;;;;;4.50;1.70;;;1.60;99.90;;;;;;4855501;29;20049;-88
2021/12/02 11:48:42;;;;;;;3.35;1.55;;;1.20;99.90;;;;;;4855410;29;20100;-88
2021/12/02 11:51:12;;;;;;;7.00;1.88;;;1.40;99.90;;;;;;4856762;29;20393;-88
2021/12/02 11:53:38;;;;;;;4.38;1.95;;;1.90;99.90;;;;;;4858721;29;20076;-88
2021/12/02 11:56:12;;;;;;;6.25;2.85;;;1.90;99.90;;;;;;4858876;29;20049;-88
2021/12/02 11:58:39;;;;;;;5.68;2.38;;;2.10;99.90;;;;;;4857497;29;20051;-88
2021/12/02 12:01:15;;;;;;;3.85;2.20;;;2.50;99.90;;;;;;4858896;29;20089;-88
2021/12/02 12:03:50;;;;;;;9.57;3.97;;;2.40;99.90;;;;;;4858521;29;20049;-88
2021/12/02 12:06:31;;;;;;;6.63;2.65;;;2.00;99.90;;;;;;4859618;29;20085;-88
2021/12/02 12:08:58;;;;;;;7.72;5.20;;;1.90;99.90;;;;;;4859348;29;20045;-88
2021/12/02 12:11:26;;;;;;;6.15;2.67;;;1.70;99.90;;;;;;4860515;29;20049;-87
2021/12/02 12:14:16;;;;;;;4.88;2.13;;;2.20;99.90;;;;;;4859534;29;20488;-88
2021/12/02 12:16:45;;;;;;;7.32;2.20;;;2.20;99.90;;;;;;4860811;29;20060;-88
2021/12/02 12:19:27;;;;;;;11.10;2.10;;;1.50;99.90;;;;;;4859850;29;20063;-88
2021/12/02 12:22:01;;;;;;;4.70;2.35;;;1.90;99.90;;;;;;4859492;29;20144;-87
2021/12/02 12:24:43;;;;;;;5.55;2.00;;;1.60;99.90;;;;;;4858875;29;20049;-88
2021/12/02 12:27:18;;;;;;;6.32;2.50;;;1.40;99.90;;;;;;4873442;29;20061;-87
2021/12/02 12:29:47;;;;;;;4.43;1.92;;;1.40;99.90;;;;;;4858614;29;20060;-87
2021/12/02 12:32:22;;;;;;;5.35;2.55;;;1.50;99.90;;;;;;4857220;29;20052;-88
2021/12/02 12:34:53;;;;;;;5.00;2.13;;;1.70;99.90;;;;;;4857207;29;20056;-88
2021/12/02 12:37:36;;;;;;;4.90;1.83;;;2.00;99.90;;;;;;4856785;29;20052;-87
2021/12/02 12:40:27;;;;;;;6.10;1.80;;;2.10;99.90;;;;;;4856684;29;20045;-87
2021/12/02 12:43:03;;;;;;;3.92;1.45;;;2.50;99.90;;;;;;4857863;29;20128;-87
2021/12/02 12:45:40;;;;;;;2.38;1.10;;;2.80;99.90;;;;;;4854596;29;20041;-88
2021/12/02 12:48:09;;;;;;;3.88;1.10;;;2.10;99.90;;;;;;4857786;29;20045;-87
2021/12/02 12:50:46;;;;;;;5.55;1.27;;;2.40;99.90;;;;;;4856650;29;20059;-87
2021/12/02 12:53:20;;;;;;;3.85;1.13;;;1.50;99.90;;;;;;4857557;29;20057;-87
2021/12/02 12:55:52;;;;;;;5.75;1.02;;;1.30;99.90;;;;;;4889572;29;20084;-87
2021/12/02 12:58:25;;;;;;;3.58;1.17;;;1.60;99.90;;;;;;4876696;29;20069;-88
2021/12/02 13:00:52;;;;;;;2.42;1.20;;;0.90;99.90;;;;;;4858905;29;20076;-88
2021/12/02 13:03:39;;;;;;;3.03;1.35;;;1.70;99.90;;;;;;4858823;29;20064;-87
2021/12/02 13:06:25;;;;;;;60.70;5.15;;;1.30;99.90;;;;;;4859727;29;20060;-87
2021/12/02 13:08:56;;;;;;;20.00;2.00;;;1.40;99.90;;;;;;4877514;29;20113;-86
2021/12/02 13:12:12;;;;;;;150.68;9.77;;;1.40;99.90;;;;;;4879821;29;20595;-85
2021/12/02 13:14:52;;;;;;;159.32;12.15;;;1.70;99.90;;;;;;4881098;29;20041;-86
2021/12/02 13:18:40;;;;;;;172.40;10.80;;;1.90;99.90;;;;;;4884508;29;20050;-85
2021/12/02 13:21:27;;;;;;;112.35;8.95;;;2.20;99.90;;;;;;4865121;29;20051;-85
2021/12/02 13:24:05;;;;;;;230.73;16.08;;;2.50;99.90;;;;;;4899250;29;20041;-85
2021/12/02 13:27:02;;;;;;;71.95;8.70;;;2.70;99.90;;;;;;4867833;29;20057;-85
2021/12/02 13:29:31;;;;;;;270.65;19.85;;;2.80;99.90;;;;;;4865136;29;20051;-85
2021/12/02 13:32:02;;;;;;;291.42;20.20;;;2.70;99.90;;;;;;4867686;29;20033;-85
2021/12/02 13:34:30;;;;;;;277.55;19.95;;;2.90;99.90;;;;;;4867647;29;20036;-85
2021/12/02 13:37:01;;;;;;;178.93;13.48;;;2.90;99.90;;;;;;4867686;29;20036;-85
2021/12/02 13:39:42;;;;;;;5.70;2.10;;;3.10;99.90;;;;;;4866772;29;20069;-85
2021/12/02 13:42:11;;;;;;;9.00;2.00;;;3.50;99.90;;;;;;4867751;29;20037;-85
2021/12/02 13:44:47;;;;;;;8.25;1.75;;;3.00;99.90;;;;;;4867503;29;20105;-85
2021/12/02 13:47:27;;;;;;;4.53;0.77;;;3.00;99.90;;;;;;4867439;29;20039;-85
2021/12/02 13:49:56;;;;;;;2.30;0.70;;;2.50;99.90;;;;;;4867525;29;20041;-84
2021/12/02 13:52:25;;;;;;;0.90;0.47;;;2.40;99.90;;;;;;4867126;29;20104;-85
2021/12/02 13:54:57;;;;;;;1.60;0.40;;;2.60;99.90;;;;;;4867248;29;20100;-85
2021/12/02 13:57:25;;;;;;;3.50;0.68;;;2.20;99.90;;;;;;4867223;29;20032;-84
2021/12/02 13:59:51;;;;;;;2.90;0.40;;;2.60;99.90;;;;;;4867036;29;20056;-84
2021/12/02 14:02:23;;;;;;;2.33;0.88;;;2.00;99.90;;;;;;4898206;29;20053;-84
2021/12/02 14:04:50;;;;;;;3.10;0.50;;;1.70;99.90;;;;;;4867140;29;20052;-84
2021/12/02 14:07:27;;;;;;;1.33;0.60;;;2.40;99.90;;;;;;4866834;29;20112;-84
2021/12/02 14:09:59;;;;;;;0.52;0.32;;;1.80;99.90;;;;;;4882644;29;20151;-84
2021/12/02 14:12:44;;;;;;;2.67;0.70;;;1.70;99.90;;;;;;4867101;29;20061;-84
2021/12/02 14:15:17;;;;;;;1.13;0.40;;;2.00;99.90;;;;;;4867233;29;20046;-84
2021/12/02 14:17:54;;;;;;;2.03;0.68;;;1.90;99.90;;;;;;4867045;29;20077;-84
2021/12/02 14:20:25;;;;;;;5.00;1.05;;;2.50;99.90;;;;;;4898221;29;20097;-84
2021/12/02 14:22:54;;;;;;;2.35;0.70;;;2.10;99.90;;;;;;4866951;29;20037;-84
2021/12/02 14:25:20;;;;;;;2.00;0.70;;;2.00;99.90;;;;;;4897871;29;20175;-84
2021/12/02 14:28:05;;;;;;;;;;;2.00;99.90;;;;;;4867338;29;20029;-84
2021/12/02 14:30:41;;;;;;;3.05;0.95;;;2.40;99.90;;;;;;4898207;29;19922;-84
2021/12/02 14:33:12;;;;;;;3.55;1.05;;;2.30;99.90;;;;;;4866807;29;20053;-84
2021/12/02 14:35:59;;;;;;;3.90;1.60;;;2.10;99.90;;;;;;4866790;29;20039;-84
2021/12/02 14:38:34;;;;;;;3.08;1.00;;;2.80;99.90;;;;;;4897508;23;20045;-84
2021/12/02 14:41:10;;;;;;;4.40;2.30;;;2.50;99.90;;;;;;4900847;29;20036;-84
2021/12/02 14:43:36;;;;;;;8.60;3.58;;;1.90;99.90;;;;;;4884046;29;20060;-84
2021/12/02 14:46:15;;;;;;;5.68;2.08;;;2.10;99.90;;;;;;4884924;29;20024;-85
2021/12/02 14:48:43;;;;;;;15.23;4.40;;;2.30;99.90;;;;;;4902772;28;20051;-84
2021/12/02 14:51:17;;;;;;;22.50;7.45;;;2.20;99.90;;;;;;4903402;28;20056;-84
2021/12/02 14:53:54;;;;;;;21.25;8.70;;;3.00;99.90;;;;;;4919249;28;20032;-84
2021/12/02 14:56:34;;;;;;;16.27;7.75;;;2.10;99.90;;;;;;4903051;28;20031;-85
2021/12/02 14:59:11;;;;;;;13.20;6.43;;;2.30;99.90;;;;;;4903018;28;20047;-84
2021/12/02 15:01:54;;;;;;;13.25;5.03;;;2.10;99.90;;;;;;4902777;28;20056;-84
2021/12/02 15:04:21;;;;;;;9.45;4.90;;;2.00;99.90;;;;;;4900611;28;20040;-84
2021/12/02 15:06:47;;;;;;;10.90;4.68;;;2.20;99.90;;;;;;4900631;28;20052;-84
2021/12/02 15:09:43;;;;;;;8.77;4.47;;;1.40;99.90;;;;;;4916478;28;20032;-84
2021/12/02 15:12:14;;;;;;;20.02;8.82;;;1.30;99.90;;;;;;4900693;28;20047;-84
2021/12/02 15:14:45;;;;;;;26.67;11.38;;;2.00;99.90;;;;;;4900820;28;20052;-84
2021/12/02 15:17:14;;;;;;;15.90;7.93;;;0.90;99.90;;;;;;4900434;28;20048;-84
2021/12/02 15:20:12;;;;;;;27.10;12.13;;;0.70;99.90;;;;;;4900497;28;20159;-86
2021/12/02 15:22:38;;;;;;;;;;;0.60;99.90;;;;;;4901410;28;20040;-86
2021/12/02 15:25:29;;;;;;;14.85;6.57;;;0.90;99.90;;;;;;4916247;28;19979;-86
2021/12/02 15:27:56;;;;;;;13.48;5.63;;;0.30;99.90;;;;;;4900874;28;20184;-86
2021/12/02 15:30:22;;;;;;;16.50;7.47;;;0.10;99.90;;;;;;4900822;28;20054;-86
2021/12/02 15:32:48;;;;;;;11.07;5.80;;;-0.10;99.90;;;;;;4900592;28;20036;-86
2021/12/02 15:35:14;;;;;;;17.60;7.00;;;-0.10;99.90;;;;;;4900361;29;20035;-86
2021/12/02 15:37:40;;;;;;;16.10;4.93;;;0.30;99.90;;;;;;4900627;29;20029;-86
2021/12/02 15:40:07;;;;;;;10.82;4.28;;;-0.30;99.90;;;;;;4900119;28;20055;-86
2021/12/02 15:42:33;;;;;;;8.35;3.58;;;-0.20;99.90;;;;;;4915677;29;20032;-86
2021/12/02 15:45:00;;;;;;;8.43;3.72;;;-0.30;99.90;;;;;;4915532;29;20130;-86